Huntington, California
Current Conditions -  °F | °C
As of 4:53 AM on Sunday 21 Dec 2014 (Local Time) from KSNA Reporting Station
Clear Clear  
Wind Chill: 57°   Ceiling: Unl
Heat Index: 57°   Visibility: 10mi
Dew Point: 49°   Wind: 0mph
Humidity: 74%   Direction: NA
Pressure: 30.11"   Gusts: NA
Location:  33.6654°N, 117.968°W
Report Text: KSNA 211253Z AUTO 00000KT 10SM CLR 14/09 A3011 RMK AO2 SLP196 T01390094 TSNO
Loading
Personal Weather Stations






























Interactive Weather Map New forecast layout! Learn more

10-Day Weather Forecast

Advertisements
Track Severe Weather on mobile